createdAt,value
2022-08-26T06:14:10.297Z,13.26
2022-08-26T06:24:10.279Z,12.31
2022-08-26T06:34:10.883Z,12.00
2022-08-26T06:44:10.246Z,14.98
2022-08-26T06:54:10.432Z,14.25
2022-08-26T07:04:10.800Z,9.31
2022-08-26T07:14:10.512Z,7.33
2022-08-26T07:24:10.991Z,11.58
2022-08-26T07:34:10.445Z,15.06
2022-08-26T07:44:10.414Z,16.04
2022-08-26T07:54:10.377Z,12.80
2022-08-26T08:04:10.527Z,9.67
2022-08-26T08:14:11.730Z,10.48
2022-08-26T08:24:10.610Z,9.27
2022-08-26T08:34:10.274Z,9.40
2022-08-26T08:44:10.541Z,5.27
2022-08-26T08:54:10.447Z,3.49
2022-08-26T09:04:10.646Z,6.50
2022-08-26T09:14:10.645Z,4.08
2022-08-26T09:24:11.260Z,3.58
2022-08-26T09:34:10.695Z,0.08
2022-08-26T09:44:14.633Z,0.00
2022-08-26T09:54:10.558Z,0.00
2022-08-26T10:04:10.889Z,0.00
2022-08-26T10:14:10.590Z,0.00
2022-08-26T10:24:11.416Z,0.00
2022-08-26T10:34:12.467Z,0.00
2022-08-26T10:44:10.613Z,0.00
2022-08-26T10:54:10.605Z,0.00
2022-08-26T11:04:10.777Z,0.00
2022-08-26T11:14:10.785Z,0.00
2022-08-26T11:24:10.656Z,0.00
2022-08-26T11:34:11.036Z,0.00
2022-08-26T11:44:10.816Z,0.00
2022-08-26T11:54:10.665Z,0.00
2022-08-26T12:04:10.690Z,0.00
2022-08-26T12:14:10.588Z,0.00
2022-08-26T12:24:10.739Z,0.00
2022-08-26T12:34:15.873Z,0.00
2022-08-26T12:44:10.601Z,0.00
2022-08-26T12:54:10.747Z,0.00
2022-08-26T13:04:10.608Z,0.00
2022-08-26T13:14:10.656Z,0.00
2022-08-26T13:24:10.726Z,0.00
2022-08-26T13:34:10.629Z,0.00
2022-08-26T13:44:10.780Z,0.00
2022-08-26T13:54:10.754Z,0.00
2022-08-26T14:04:10.914Z,0.00
2022-08-26T14:14:10.780Z,0.00
2022-08-26T14:24:10.743Z,0.00
2022-08-26T14:34:10.799Z,0.00
2022-08-26T14:44:10.785Z,0.00
2022-08-26T14:54:10.842Z,0.00
2022-08-26T15:04:11.017Z,0.00
2022-08-26T15:14:14.829Z,0.00
2022-08-26T15:24:10.806Z,0.00
2022-08-26T15:34:14.575Z,0.00
2022-08-26T15:44:10.929Z,0.00
2022-08-26T15:54:10.918Z,0.00
2022-08-26T16:04:10.882Z,0.00
2022-08-26T16:14:10.865Z,0.00
2022-08-26T16:24:10.938Z,0.00
2022-08-26T16:34:11.052Z,0.00
2022-08-26T16:44:11.026Z,0.00
2022-08-26T16:54:10.974Z,0.00
2022-08-26T17:04:11.065Z,0.00
2022-08-26T17:14:11.032Z,0.00
2022-08-26T17:24:11.186Z,0.00
2022-08-26T17:34:11.287Z,0.00
2022-08-26T17:44:11.406Z,0.00
2022-08-26T17:54:11.295Z,0.00
2022-08-26T18:04:11.483Z,0.06
2022-08-26T18:14:11.295Z,11.17
2022-08-26T18:24:14.064Z,7.10
2022-08-26T18:34:11.269Z,6.50
2022-08-26T18:44:13.571Z,3.48
2022-08-26T18:54:11.353Z,3.60
2022-08-26T19:04:11.392Z,3.52
2022-08-26T19:14:11.320Z,17.77
